Terminal Aerodrome Forecast
Issued by NWS Cleveland, OH

Home | Current Version | Previous Version | Graphics & Text | Print | Product List | Glossary On
Versions: 1 2 3 4 5 6 7 8 9 10 11 12 13 14 15 16 17 18 19 20 21
000
FTUS41 KCLE 161100 RRA
TAFMFD
TAF
KMFD 161145Z 1612/1712 15008KT P6SM BKN016 OVC022
      TEMPO 1612/1614 5SM -SHRA BKN008
     FM161400 18010KT 4SM BR VCSH OVC008
     FM161800 23010KT 3SM BR VCSH OVC006
     FM170300 25012G22KT P6SM OVC008
     FM170800 25014G22KT P6SM BKN015=

USA.gov is the U.S. government's official web portal to all federal, state and local government web resources and services.